Time;durP1;ratioP1;P1;durP2;ratioP2;P2;SDS_P1;SDS_P2;PMS_P1;PMS_P2;Temp;Humidity;BMP_temperature;BMP_pressure;BME280_temperature;BME280_humidity;BME280_pressure;Samples;Min_cycle;Max_cycle;Signal;HPM_P1;HPM_P2
2023/03/26 00:00:49;;;;;;;2.28;1.42;;;10.50;82.60;;;;;;5024738;28;20079;-64
2023/03/26 00:03:17;;;;;;;5.63;1.83;;;10.50;82.70;;;;;;5034161;28;20049;-64
2023/03/26 00:05:46;;;;;;;3.35;1.10;;;10.50;82.60;;;;;;5028921;28;20037;-64
2023/03/26 00:08:15;;;;;;;2.83;1.00;;;10.50;82.60;;;;;;5024529;28;20021;-64
2023/03/26 00:10:43;;;;;;;4.75;2.15;;;10.50;82.60;;;;;;5019755;28;20117;-64
2023/03/26 00:13:09;;;;;;;3.15;2.00;;;10.50;82.60;;;;;;5011820;28;20025;-64
2023/03/26 00:15:36;;;;;;;3.50;1.45;;;10.50;82.60;;;;;;5024297;28;20064;-64
2023/03/26 00:18:02;;;;;;;4.55;1.38;;;10.50;82.70;;;;;;4991830;28;20132;-65
2023/03/26 00:20:34;;;;;;;1.58;0.50;;;10.50;82.80;;;;;;5018322;28;20048;-64
2023/03/26 00:23:00;;;;;;;11.40;1.23;;;10.50;82.80;;;;;;5013418;28;20469;-66
2023/03/26 00:25:27;;;;;;;2.85;1.52;;;10.50;82.80;;;;;;5036391;28;20028;-64
2023/03/26 00:27:53;;;;;;;5.07;1.95;;;10.50;82.80;;;;;;5027094;28;20029;-64
2023/03/26 00:30:19;;;;;;;4.78;1.90;;;10.50;82.90;;;;;;5022147;28;20026;-65
2023/03/26 00:32:45;;;;;;;2.45;1.65;;;10.50;82.80;;;;;;5007849;28;20168;-64
2023/03/26 00:35:11;;;;;;;3.17;1.90;;;10.50;82.80;;;;;;5032698;28;20527;-65
2023/03/26 00:37:41;;;;;;;6.95;1.52;;;10.60;82.80;;;;;;5016910;28;20515;-64
2023/03/26 00:40:09;;;;;;;5.95;1.17;;;10.60;82.90;;;;;;5020299;28;20208;-65
2023/03/26 00:42:36;;;;;;;3.35;2.03;;;10.60;82.90;;;;;;5027471;28;20033;-64
2023/03/26 00:45:06;;;;;;;3.08;2.25;;;10.60;82.90;;;;;;5028331;28;20136;-65
2023/03/26 00:47:32;;;;;;;3.38;1.02;;;10.70;82.80;;;;;;5026778;28;20028;-65
2023/03/26 00:49:58;;;;;;;3.55;1.50;;;10.70;82.70;;;;;;5010675;28;20033;-63
2023/03/26 00:52:27;;;;;;;12.45;2.58;;;10.70;82.60;;;;;;5026067;28;20105;-64
2023/03/26 00:54:53;;;;;;;4.95;2.25;;;10.70;82.70;;;;;;5028646;28;20029;-65
2023/03/26 00:57:20;;;;;;;3.92;2.55;;;10.70;82.80;;;;;;5028236;28;20025;-64
2023/03/26 00:59:47;;;;;;;6.00;1.95;;;10.60;82.90;;;;;;5006173;28;20040;-64
2023/03/26 01:02:19;;;;;;;6.65;2.80;;;10.60;83.00;;;;;;5018114;28;20498;-64
2023/03/26 01:04:49;;;;;;;8.82;3.13;;;10.60;83.00;;;;;;5022411;28;20448;-65
2023/03/26 01:07:20;;;;;;;5.28;2.35;;;10.60;83.10;;;;;;5021943;28;20044;-65
2023/03/26 01:09:49;;;;;;;4.90;2.63;;;10.60;83.30;;;;;;5022459;28;20416;-64
2023/03/26 01:12:19;;;;;;;8.73;2.35;;;10.70;83.10;;;;;;5028784;28;20025;-66
2023/03/26 01:14:50;;;;;;;10.55;2.95;;;10.80;83.10;;;;;;5029745;28;20499;-67
2023/03/26 01:17:17;;;;;;;3.83;1.83;;;10.70;83.00;;;;;;5025326;28;20021;-66
2023/03/26 01:20:18;;;;;;;6.40;2.03;;;10.70;83.20;;;;;;5028292;28;20351;-67
2023/03/26 01:22:48;;;;;;;9.25;3.35;;;10.80;83.20;;;;;;5001302;28;20032;-66
2023/03/26 01:25:14;;;;;;;20.70;4.68;;;10.70;83.20;;;;;;5027542;28;20029;-67
2023/03/26 01:27:53;;;;;;;11.57;4.00;;;10.70;83.50;;;;;;5028331;28;20020;-67
2023/03/26 01:30:37;;;;;;;5.00;1.95;;;10.70;83.50;;;;;;5026770;28;20021;-66
2023/03/26 01:33:12;;;;;;;5.53;2.10;;;10.70;83.50;;;;;;5036397;28;20017;-67
2023/03/26 01:35:50;;;;;;;7.82;2.28;;;10.80;83.40;;;;;;5031535;28;20411;-65
2023/03/26 01:38:45;;;;;;;19.20;2.75;;;10.90;83.20;;;;;;5029892;28;20035;-63
2023/03/26 01:41:37;;;;;;;6.47;2.40;;;10.90;83.30;;;;;;5030095;28;20029;-63
2023/03/26 01:44:20;;;;;;;3.53;2.03;;;10.80;83.50;;;;;;5028096;28;20484;-64
2023/03/26 01:46:47;;;;;;;8.77;2.90;;;10.80;83.50;;;;;;5028066;28;20118;-65
2023/03/26 01:49:13;;;;;;;9.00;2.30;;;10.80;83.40;;;;;;5012256;28;20171;-64
2023/03/26 01:51:40;;;;;;;4.13;2.60;;;10.90;83.40;;;;;;5007155;28;20160;-64
2023/03/26 01:54:09;;;;;;;8.80;2.42;;;10.90;83.30;;;;;;5032352;28;20048;-64
2023/03/26 01:56:42;;;;;;;7.10;2.95;;;10.90;83.30;;;;;;5033766;28;20018;-64
2023/03/26 01:59:10;;;;;;;7.38;2.55;;;10.90;83.30;;;;;;5026458;28;20049;-66
2023/03/26 02:02:00;;;;;;;9.98;2.95;;;10.90;83.30;;;;;;5016563;28;20123;-66
2023/03/26 02:04:51;;;;;;;14.63;3.63;;;10.90;83.40;;;;;;5024833;28;20033;-67
2023/03/26 02:07:37;;;;;;;6.88;3.15;;;10.90;83.70;;;;;;5008882;28;20245;-64
2023/03/26 02:10:28;;;;;;;10.48;3.45;;;10.90;83.80;;;;;;5023074;28;20033;-67
2023/03/26 02:12:54;;;;;;;12.40;2.72;;;10.90;83.90;;;;;;5033311;28;20025;-67
2023/03/26 02:15:20;;;;;;;10.00;3.00;;;10.80;83.90;;;;;;5027589;28;20457;-66
2023/03/26 02:17:48;;;;;;;7.32;2.75;;;10.80;83.90;;;;;;5028961;28;20034;-64
2023/03/26 02:20:17;;;;;;;8.35;3.20;;;10.90;83.90;;;;;;5027273;28;20036;-66
2023/03/26 02:22:44;;;;;;;5.10;2.42;;;10.90;83.80;;;;;;5013038;28;20088;-67
2023/03/26 02:25:22;;;;;;;7.00;3.05;;;10.90;83.70;;;;;;5025631;28;20072;-66
2023/03/26 02:27:50;;;;;;;13.43;3.40;;;10.90;84.30;;;;;;5026547;28;20033;-66
2023/03/26 02:30:19;;;;;;;6.47;2.33;;;10.90;83.70;;;;;;5033012;28;20428;-64
2023/03/26 02:32:45;;;;;;;5.65;2.50;;;10.90;83.60;;;;;;5025421;28;20362;-64
2023/03/26 02:35:11;;;;;;;7.10;2.63;;;11.00;83.60;;;;;;5033253;28;20445;-65
2023/03/26 02:37:40;;;;;;;10.13;2.15;;;11.00;83.50;;;;;;5026543;28;20439;-67
2023/03/26 02:40:10;;;;;;;9.45;3.03;;;11.00;83.50;;;;;;5040789;28;20040;-66
2023/03/26 02:42:37;;;;;;;4.53;2.35;;;11.00;83.50;;;;;;5024029;28;20099;-66
2023/03/26 02:45:03;;;;;;;8.23;3.00;;;11.00;84.00;;;;;;5035140;28;20068;-67
2023/03/26 02:47:29;;;;;;;10.13;2.92;;;11.00;83.50;;;;;;5030770;28;20038;-66
2023/03/26 02:49:54;;;;;;;11.48;4.18;;;11.00;83.40;;;;;;5036378;28;20025;-64
2023/03/26 02:52:20;;;;;;;19.58;2.85;;;11.00;83.40;;;;;;5032188;28;20575;-67
2023/03/26 02:54:46;;;;;;;6.03;2.95;;;10.90;83.50;;;;;;5011208;28;20079;-66
2023/03/26 02:57:11;;;;;;;8.88;3.47;;;10.90;83.50;;;;;;5018029;28;20064;-64
2023/03/26 02:59:37;;;;;;;7.50;3.08;;;11.00;83.60;;;;;;5031207;28;20160;-63
2023/03/26 03:02:03;;;;;;;12.45;3.80;;;10.90;83.50;;;;;;5013297;28;20404;-64
2023/03/26 03:04:29;;;;;;;16.88;3.10;;;10.90;83.50;;;;;;5028237;28;20052;-66
2023/03/26 03:06:56;;;;;;;5.68;2.78;;;10.90;83.50;;;;;;5026479;28;20080;-66
2023/03/26 03:09:26;;;;;;;13.48;2.67;;;10.90;83.50;;;;;;5031308;28;20029;-66
2023/03/26 03:11:52;;;;;;;10.68;3.65;;;11.00;83.60;;;;;;5030582;28;20045;-67
2023/03/26 03:14:18;;;;;;;13.27;3.10;;;10.90;83.60;;;;;;5031643;28;20112;-67
2023/03/26 03:16:44;;;;;;;8.35;3.42;;;10.90;83.60;;;;;;5032573;28;20033;-67
2023/03/26 03:19:10;;;;;;;11.13;2.83;;;10.90;83.70;;;;;;5029349;28;20093;-65
2023/03/26 03:21:35;;;;;;;7.90;2.75;;;10.90;83.80;;;;;;5030620;28;20120;-67
2023/03/26 03:24:01;;;;;;;10.38;2.75;;;10.90;83.90;;;;;;5025138;28;20029;-66
2023/03/26 03:26:28;;;;;;;8.02;2.90;;;10.90;83.80;;;;;;5031359;28;20033;-67
2023/03/26 03:28:56;;;;;;;7.60;3.28;;;10.90;83.70;;;;;;5032966;28;20472;-66
2023/03/26 03:31:23;;;;;;;10.80;2.30;;;10.90;83.60;;;;;;5033242;28;20036;-66
2023/03/26 03:33:49;;;;;;;6.85;2.92;;;10.90;83.60;;;;;;5029513;28;20468;-67
2023/03/26 03:36:17;;;;;;;7.18;2.85;;;11.00;83.60;;;;;;5032862;28;20035;-64
2023/03/26 03:38:43;;;;;;;4.60;2.38;;;11.00;83.50;;;;;;5029503;28;20029;-64
2023/03/26 03:41:10;;;;;;;20.13;4.70;;;11.00;83.40;;;;;;5016389;28;20040;-64
2023/03/26 03:43:36;;;;;;;5.82;2.65;;;10.90;83.30;;;;;;5015588;28;20053;-64
2023/03/26 03:46:02;;;;;;;6.68;2.53;;;10.90;83.40;;;;;;5032304;28;20091;-64
2023/03/26 03:48:28;;;;;;;8.32;3.55;;;10.90;83.30;;;;;;5031868;28;20362;-64
2023/03/26 03:50:54;;;;;;;4.00;2.60;;;10.90;83.40;;;;;;5034159;28;20481;-65
2023/03/26 03:53:24;;;;;;;6.03;2.35;;;11.00;83.30;;;;;;5025311;28;20033;-67
2023/03/26 03:55:54;;;;;;;7.20;3.45;;;11.00;83.20;;;;;;5030582;28;20029;-66
2023/03/26 03:58:26;;;;;;;20.40;3.08;;;11.00;83.10;;;;;;5033015;28;20049;-64
2023/03/26 04:00:59;;;;;;;6.85;3.05;;;11.10;83.10;;;;;;5035184;28;20434;-64
2023/03/26 04:03:26;;;;;;;6.93;3.45;;;11.10;83.10;;;;;;5033714;28;20433;-67
2023/03/26 04:05:53;;;;;;;7.18;2.50;;;11.10;83.00;;;;;;5035206;28;20068;-68
2023/03/26 04:08:20;;;;;;;9.45;2.88;;;11.10;83.10;;;;;;5039977;28;20440;-68
2023/03/26 04:10:46;;;;;;;7.97;3.03;;;11.10;82.90;;;;;;5014208;28;20334;-65
2023/03/26 04:13:13;;;;;;;8.07;3.58;;;11.10;82.80;;;;;;5035246;28;20095;-63
2023/03/26 04:15:40;;;;;;;8.60;3.08;;;11.10;82.70;;;;;;5013137;28;20029;-67
2023/03/26 04:18:09;;;;;;;10.38;3.78;;;11.10;82.70;;;;;;5027948;28;20044;-66
2023/03/26 04:20:37;;;;;;;10.02;3.20;;;11.00;82.70;;;;;;5011657;28;20050;-65
2023/03/26 04:23:03;;;;;;;10.30;3.67;;;11.00;82.90;;;;;;5012714;28;20036;-64
2023/03/26 04:25:32;;;;;;;7.22;3.03;;;11.00;82.80;;;;;;5030117;28;20573;-66
2023/03/26 04:28:00;;;;;;;9.65;2.55;;;11.10;82.80;;;;;;5032878;28;20481;-67
2023/03/26 04:30:26;;;;;;;9.25;3.88;;;11.10;82.70;;;;;;5020039;28;20386;-63
2023/03/26 04:32:53;;;;;;;3.97;2.78;;;11.10;82.70;;;;;;5015753;28;20082;-64
2023/03/26 04:35:19;;;;;;;13.20;4.10;;;11.10;82.70;;;;;;5033719;28;20412;-64
2023/03/26 04:37:45;;;;;;;11.48;3.05;;;11.10;82.80;;;;;;5032057;28;20021;-64
2023/03/26 04:40:15;;;;;;;6.95;2.28;;;11.10;82.90;;;;;;5039585;28;20029;-64
2023/03/26 04:42:44;;;;;;;7.07;1.90;;;11.10;82.90;;;;;;5030361;28;20416;-67
2023/03/26 04:45:11;;;;;;;7.03;2.20;;;11.10;82.80;;;;;;5028527;28;20041;-67
2023/03/26 04:47:37;;;;;;;11.15;3.10;;;11.10;82.80;;;;;;5018148;28;20157;-64
2023/03/26 04:50:08;;;;;;;5.68;2.10;;;11.10;82.80;;;;;;5039621;28;20021;-67
2023/03/26 04:52:34;;;;;;;10.93;2.88;;;11.20;82.80;;;;;;5026011;28;20439;-66
2023/03/26 04:55:00;;;;;;;8.40;3.05;;;11.20;82.80;;;;;;5013068;28;20025;-66
2023/03/26 04:57:36;;;;;;;10.98;4.28;;;11.10;82.70;;;;;;5010439;28;20528;-66
2023/03/26 05:00:14;;;;;;;10.18;2.40;;;11.10;82.60;;;;;;5002189;28;20018;-66
2023/03/26 05:02:40;;;;;;;8.68;2.80;;;11.10;82.80;;;;;;5039550;28;20074;-66
2023/03/26 05:05:07;;;;;;;9.63;2.95;;;11.10;82.80;;;;;;5026797;28;20026;-66
2023/03/26 05:07:33;;;;;;;4.60;2.53;;;11.10;82.80;;;;;;5023642;28;20032;-66
2023/03/26 05:10:00;;;;;;;9.27;2.65;;;11.10;82.80;;;;;;5030235;28;20038;-64
2023/03/26 05:12:26;;;;;;;9.20;2.75;;;11.10;82.80;;;;;;5032698;28;20544;-65
2023/03/26 05:14:52;;;;;;;3.20;1.90;;;11.10;82.80;;;;;;5010370;28;20065;-64
2023/03/26 05:17:20;;;;;;;12.27;3.22;;;11.10;82.80;;;;;;5031060;28;20024;-67
2023/03/26 05:19:46;;;;;;;6.00;2.22;;;11.10;82.80;;;;;;5013382;28;20423;-67
2023/03/26 05:22:12;;;;;;;4.57;2.08;;;11.20;82.80;;;;;;5027669;28;20124;-66
2023/03/26 05:24:37;;;;;;;6.20;2.47;;;11.20;82.80;;;;;;5030069;28;20496;-64
2023/03/26 05:27:03;;;;;;;4.28;2.22;;;11.20;82.80;;;;;;5028559;28;20496;-67
2023/03/26 05:29:30;;;;;;;3.92;2.00;;;11.20;82.80;;;;;;5027301;28;20109;-66
2023/03/26 05:31:56;;;;;;;10.07;2.20;;;11.20;82.80;;;;;;5008074;28;20029;-66
2023/03/26 05:34:25;;;;;;;6.63;1.88;;;11.20;82.80;;;;;;4991245;28;20040;-67
2023/03/26 05:36:51;;;;;;;5.25;2.35;;;11.20;82.80;;;;;;5022594;28;20484;-65
2023/03/26 05:39:17;;;;;;;4.07;1.85;;;11.20;82.80;;;;;;5021757;28;20104;-64
2023/03/26 05:41:43;;;;;;;7.38;2.28;;;11.20;82.80;;;;;;5030089;28;20121;-65
2023/03/26 05:44:09;;;;;;;10.20;3.17;;;11.20;82.80;;;;;;5028149;28;20053;-64
2023/03/26 05:46:35;;;;;;;14.32;2.70;;;11.20;82.80;;;;;;5009663;28;20068;-65
2023/03/26 05:49:00;;;;;;;3.03;1.73;;;11.20;82.80;;;;;;5027034;28;20057;-67
2023/03/26 05:51:26;;;;;;;7.68;2.25;;;11.20;82.80;;;;;;5030351;28;20037;-65
2023/03/26 05:53:52;;;;;;;6.50;1.85;;;11.20;82.90;;;;;;5029973;28;20535;-65
2023/03/26 05:56:17;;;;;;;5.70;2.83;;;11.10;82.90;;;;;;5029086;28;20029;-66
2023/03/26 05:58:43;;;;;;;6.18;1.90;;;11.20;83.00;;;;;;5030362;28;20076;-66
2023/03/26 06:01:15;;;;;;;5.68;2.33;;;11.20;83.00;;;;;;5004598;28;20038;-65
2023/03/26 06:03:43;;;;;;;5.40;1.80;;;11.20;83.00;;;;;;5031677;28;20033;-67
2023/03/26 06:06:15;;;;;;;4.50;2.45;;;11.20;82.90;;;;;;5031783;28;20037;-66
2023/03/26 06:08:45;;;;;;;6.57;2.67;;;11.20;82.90;;;;;;5032975;28;20426;-66
2023/03/26 06:11:11;;;;;;;2.47;1.65;;;11.20;82.90;;;;;;5026735;28;20065;-65
2023/03/26 06:13:38;;;;;;;5.50;1.80;;;11.20;82.90;;;;;;5036323;28;20087;-64
2023/03/26 06:16:05;;;;;;;6.53;2.65;;;11.20;82.90;;;;;;5012299;28;20033;-66
2023/03/26 06:18:30;;;;;;;6.43;2.83;;;11.20;82.90;;;;;;5038368;28;20549;-66
2023/03/26 06:20:56;;;;;;;3.05;1.70;;;11.20;82.90;;;;;;5026184;28;20041;-67
2023/03/26 06:23:22;;;;;;;7.28;2.08;;;11.20;82.90;;;;;;5038945;28;20041;-64
2023/03/26 06:25:48;;;;;;;6.95;2.20;;;11.20;82.90;;;;;;5015174;28;20034;-66
2023/03/26 06:28:14;;;;;;;3.72;2.30;;;11.10;82.90;;;;;;5028735;28;20059;-64
2023/03/26 06:30:40;;;;;;;6.13;2.65;;;11.20;83.00;;;;;;5031031;28;20569;-66
2023/03/26 06:33:06;;;;;;;10.63;2.88;;;11.20;83.00;;;;;;5028728;28;20108;-65
2023/03/26 06:35:32;;;;;;;6.80;2.20;;;11.10;83.00;;;;;;5034706;28;20041;-68
2023/03/26 06:37:58;;;;;;;9.27;2.10;;;11.10;83.00;;;;;;5029248;28;20084;-64
2023/03/26 06:40:24;;;;;;;3.45;2.03;;;11.10;82.90;;;;;;5029510;28;20026;-66
2023/03/26 06:42:50;;;;;;;8.95;2.28;;;11.10;83.00;;;;;;5030112;28;20055;-64
2023/03/26 06:45:16;;;;;;;7.63;3.15;;;11.10;83.00;;;;;;5038335;28;20033;-63
2023/03/26 06:47:42;;;;;;;8.00;2.80;;;11.10;82.90;;;;;;5017995;28;20394;-67
2023/03/26 06:50:10;;;;;;;6.38;2.65;;;11.10;83.00;;;;;;5038474;28;20033;-67
2023/03/26 06:52:36;;;;;;;6.10;2.60;;;11.20;83.00;;;;;;5012712;28;20030;-66
2023/03/26 06:55:02;;;;;;;6.85;2.42;;;11.20;83.00;;;;;;5023892;28;20047;-64
2023/03/26 06:57:27;;;;;;;3.20;1.98;;;11.20;83.00;;;;;;5032057;28;20044;-64
2023/03/26 06:59:53;;;;;;;6.47;1.65;;;11.20;82.90;;;;;;5039341;28;20025;-64
2023/03/26 07:02:19;;;;;;;5.47;2.20;;;11.20;83.50;;;;;;5019553;28;20040;-64
2023/03/26 07:04:45;;;;;;;9.20;2.78;;;11.20;82.90;;;;;;5008061;28;20021;-66
2023/03/26 07:07:12;;;;;;;4.25;1.45;;;11.30;83.00;;;;;;5032716;28;20431;-67
2023/03/26 07:09:37;;;;;;;5.25;2.33;;;11.20;83.00;;;;;;5027413;28;20037;-67
2023/03/26 07:12:04;;;;;;;6.68;1.70;;;11.30;82.90;;;;;;5035611;28;20164;-64
2023/03/26 07:14:31;;;;;;;7.93;2.30;;;11.30;82.90;;;;;;5029121;28;20033;-64
2023/03/26 07:17:00;;;;;;;7.15;2.72;;;11.30;82.90;;;;;;5024257;28;20038;-64
2023/03/26 07:19:25;;;;;;;5.65;2.35;;;11.30;82.80;;;;;;5030501;28;20086;-64
2023/03/26 07:21:51;;;;;;;4.55;2.35;;;11.30;82.90;;;;;;5029198;28;20041;-67
2023/03/26 07:24:18;;;;;;;3.20;2.13;;;11.30;82.80;;;;;;5031189;28;20416;-66
2023/03/26 07:27:06;;;;;;;3.70;1.88;;;11.30;82.80;;;;;;5038408;28;20033;-67
2023/03/26 07:29:44;;;;;;;8.55;2.05;;;11.30;82.80;;;;;;5012957;28;20393;-66
2023/03/26 07:32:38;;;;;;;5.47;2.60;;;11.30;82.80;;;;;;5023564;28;20382;-63
2023/03/26 07:35:13;;;;;;;10.15;2.03;;;11.40;82.90;;;;;;5029590;28;20029;-66
2023/03/26 07:37:51;;;;;;;2.97;1.42;;;11.40;82.90;;;;;;5002134;28;20512;-64
2023/03/26 07:40:23;;;;;;;8.77;2.00;;;11.40;82.90;;;;;;5003352;28;20481;-66
2023/03/26 07:42:54;;;;;;;5.87;2.17;;;11.40;82.80;;;;;;5021489;28;20076;-67
2023/03/26 07:45:29;;;;;;;15.00;2.37;;;11.40;83.40;;;;;;5008935;28;20033;-64
2023/03/26 07:47:55;;;;;;;6.55;1.65;;;11.40;82.80;;;;;;5030994;28;20016;-64
2023/03/26 07:50:23;;;;;;;7.85;2.03;;;11.40;82.90;;;;;;5029541;28;20121;-64
2023/03/26 07:52:49;;;;;;;4.07;1.30;;;11.40;82.90;;;;;;5031308;28;20041;-66
2023/03/26 07:55:16;;;;;;;5.20;1.45;;;11.50;82.90;;;;;;5029996;28;20065;-67
2023/03/26 07:58:09;;;;;;;6.78;2.28;;;11.50;82.90;;;;;;5006186;28;20048;-67
2023/03/26 08:00:54;;;;;;;5.05;1.92;;;11.50;82.80;;;;;;5029794;28;20465;-66
2023/03/26 08:03:43;;;;;;;8.05;1.98;;;11.60;82.90;;;;;;5031497;28;20017;-66
2023/03/26 08:06:17;;;;;;;3.35;1.88;;;11.60;82.90;;;;;;5027253;28;20508;-63
2023/03/26 08:08:47;;;;;;;6.82;2.28;;;11.50;82.90;;;;;;5025969;28;20507;-63
2023/03/26 08:11:58;;;;;;;3.72;1.75;;;11.50;82.80;;;;;;5025205;28;20025;-63
2023/03/26 08:14:56;;;;;;;6.95;2.17;;;11.60;82.80;;;;;;5018702;28;20038;-66
2023/03/26 08:17:37;;;;;;;11.50;2.28;;;11.60;82.80;;;;;;4992573;28;20069;-66
2023/03/26 08:20:29;;;;;;;5.03;2.08;;;11.60;82.90;;;;;;5028914;28;20041;-67
2023/03/26 08:23:06;;;;;;;4.85;2.55;;;11.60;83.00;;;;;;5035131;28;20025;-66
2023/03/26 08:26:13;;;;;;;3.65;1.75;;;11.50;83.00;;;;;;5033397;28;20044;-63
2023/03/26 08:28:56;;;;;;;8.55;2.40;;;11.60;83.00;;;;;;5002613;28;20080;-63
2023/03/26 08:31:35;;;;;;;;;;;11.60;83.10;;;;;;5026693;28;20397;-66
2023/03/26 08:34:01;;;;;;;7.72;1.90;;;11.60;83.10;;;;;;5027340;28;20336;-64
2023/03/26 08:36:28;;;;;;;10.68;3.70;;;11.60;83.20;;;;;;5023871;28;20029;-64
2023/03/26 08:38:56;;;;;;;3.88;2.13;;;11.60;83.10;;;;;;5008104;28;20048;-67
2023/03/26 08:41:45;;;;;;;9.02;1.92;;;11.60;83.10;;;;;;5032647;28;20021;-67
2023/03/26 08:44:12;;;;;;;8.60;2.78;;;11.70;83.10;;;;;;5028915;28;20029;-66
2023/03/26 08:46:59;;;;;;;8.07;1.88;;;11.60;83.10;;;;;;5030823;28;20129;-67
2023/03/26 08:49:34;;;;;;;7.00;2.25;;;11.60;83.00;;;;;;5021789;28;20163;-66
2023/03/26 08:52:03;;;;;;;5.05;1.80;;;11.60;83.00;;;;;;5022236;28;20029;-66
2023/03/26 08:55:13;;;;;;;8.65;2.03;;;11.60;83.10;;;;;;5021197;28;20472;-67
2023/03/26 08:58:07;;;;;;;3.15;1.75;;;11.60;83.00;;;;;;5028849;28;20021;-66
2023/03/26 09:00:36;;;;;;;6.65;2.33;;;11.60;83.20;;;;;;5026024;28;20065;-66
2023/03/26 09:03:27;;;;;;;5.35;2.47;;;11.50;83.10;;;;;;5029175;28;20033;-67
2023/03/26 09:06:11;;;;;;;9.02;2.13;;;11.50;83.00;;;;;;5029053;28;20412;-66
2023/03/26 09:09:03;;;;;;;6.78;2.17;;;11.40;83.20;;;;;;5039834;28;20481;-66
2023/03/26 09:12:04;;;;;;;4.60;1.60;;;11.40;83.20;;;;;;5016695;28;20128;-66
2023/03/26 09:14:36;;;;;;;3.50;1.63;;;11.40;83.30;;;;;;5000709;28;20286;-65
2023/03/26 09:17:05;;;;;;;6.72;2.45;;;11.40;83.50;;;;;;5010034;28;20053;-66
2023/03/26 09:20:25;;;;;;;6.88;2.83;;;11.40;83.40;;;;;;5011695;28;20037;-66
2023/03/26 09:23:11;;;;;;;3.67;1.70;;;11.40;83.30;;;;;;4938339;29;20057;-66
2023/03/26 09:26:04;;;;;;;7.22;2.20;;;11.30;83.30;;;;;;5027206;28;20071;-65
2023/03/26 09:29:03;;;;;;;3.00;1.70;;;11.40;83.40;;;;;;5017892;28;20022;-65
2023/03/26 09:31:44;;;;;;;6.68;2.20;;;11.30;83.40;;;;;;5036740;28;20461;-65
2023/03/26 09:34:43;;;;;;;7.65;1.98;;;11.30;83.40;;;;;;5019644;28;20049;-66
2023/03/26 09:37:26;;;;;;;4.88;1.60;;;11.30;83.30;;;;;;5010159;28;20025;-67
2023/03/26 09:40:11;;;;;;;10.40;1.88;;;11.30;83.30;;;;;;5031625;28;20468;-67
2023/03/26 09:42:43;;;;;;;8.50;1.67;;;11.30;83.40;;;;;;5020673;28;20471;-66
2023/03/26 09:45:29;;;;;;;3.60;2.15;;;11.30;83.40;;;;;;5019233;28;20083;-67
2023/03/26 09:48:19;;;;;;;2.70;1.67;;;11.30;83.30;;;;;;5016595;28;20049;-66
2023/03/26 09:50:45;;;;;;;3.22;1.67;;;11.40;83.40;;;;;;5001160;28;20137;-66
2023/03/26 09:53:54;;;;;;;9.77;1.90;;;11.30;83.40;;;;;;5023562;28;20171;-66
2023/03/26 09:56:43;;;;;;;7.85;1.95;;;11.40;83.40;;;;;;5015915;28;20026;-68
2023/03/26 09:59:08;;;;;;;2.08;1.33;;;11.40;83.40;;;;;;5025613;28;20557;-67
2023/03/26 10:01:34;;;;;;;5.55;1.75;;;11.50;83.50;;;;;;5010163;28;20117;-66
2023/03/26 10:04:26;;;;;;;3.42;1.52;;;11.50;83.40;;;;;;5021494;28;20060;-66
2023/03/26 10:07:16;;;;;;;5.03;2.23;;;11.60;83.30;;;;;;5012698;28;20029;-66
2023/03/26 10:09:54;;;;;;;4.38;1.63;;;11.60;83.30;;;;;;5022355;28;20472;-65
2023/03/26 10:12:30;;;;;;;2.97;1.40;;;11.60;83.30;;;;;;5026574;28;20029;-65
2023/03/26 10:15:25;;;;;;;2.17;1.48;;;11.60;83.30;;;;;;5023585;28;20030;-67
2023/03/26 10:18:07;;;;;;;5.07;1.70;;;11.60;83.40;;;;;;5024517;28;20045;-66
2023/03/26 10:20:58;;;;;;;4.90;1.27;;;11.60;83.40;;;;;;5030526;28;20048;-66
2023/03/26 10:23:29;;;;;;;4.22;1.00;;;11.70;83.30;;;;;;5022349;28;20052;-65
2023/03/26 10:26:15;;;;;;;1.02;1.02;;;11.70;83.40;;;;;;5033419;28;20028;-65
2023/03/26 10:29:10;;;;;;;2.28;1.42;;;11.80;83.30;;;;;;5030679;28;20013;-67
2023/03/26 10:31:45;;;;;;;3.40;1.13;;;11.80;83.30;;;;;;5028063;28;20101;-66
2023/03/26 10:34:16;;;;;;;2.90;1.30;;;11.80;83.30;;;;;;5033720;28;20037;-66
2023/03/26 10:37:09;;;;;;;1.73;1.17;;;11.90;83.30;;;;;;5031244;28;20492;-66
2023/03/26 10:40:04;;;;;;;5.18;1.73;;;12.00;83.30;;;;;;5031577;28;20287;-67
2023/03/26 10:43:12;;;;;;;1.95;1.50;;;12.10;83.20;;;;;;5026909;28;20036;-66
2023/03/26 10:45:53;;;;;;;5.85;1.00;;;12.20;83.10;;;;;;5032431;28;20037;-66
2023/03/26 10:48:41;;;;;;;3.20;1.35;;;12.20;83.00;;;;;;5029674;28;20029;-67
2023/03/26 10:51:20;;;;;;;0.80;0.73;;;12.20;83.00;;;;;;5036503;28;20116;-67
2023/03/26 10:54:11;;;;;;;4.20;1.20;;;12.20;83.00;;;;;;5028969;28;20021;-65
2023/03/26 10:56:49;;;;;;;2.22;1.13;;;12.20;82.90;;;;;;5030641;28;20053;-64
2023/03/26 10:59:16;;;;;;;5.13;1.45;;;12.20;83.00;;;;;;5007400;28;20021;-65
2023/03/26 11:02:15;;;;;;;2.28;1.25;;;12.10;83.00;;;;;;5035974;28;20025;-65
2023/03/26 11:05:18;;;;;;;5.03;1.02;;;12.10;83.00;;;;;;5015180;28;20067;-65
2023/03/26 11:08:05;;;;;;;3.58;1.25;;;12.10;83.20;;;;;;5011240;28;20034;-65
2023/03/26 11:10:55;;;;;;;2.17;1.50;;;12.00;83.20;;;;;;5015089;28;20426;-65
2023/03/26 11:13:43;;;;;;;1.75;1.40;;;12.00;83.00;;;;;;5004982;28;20557;-65
2023/03/26 11:16:24;;;;;;;2.67;1.13;;;11.90;83.20;;;;;;5034053;28;20041;-65
2023/03/26 11:19:01;;;;;;;5.05;1.60;;;11.90;83.20;;;;;;5026518;28;20057;-67
2023/03/26 11:21:50;;;;;;;5.25;1.88;;;11.90;83.20;;;;;;5020200;28;20043;-67
2023/03/26 11:24:39;;;;;;;5.50;1.65;;;11.80;83.20;;;;;;5036808;28;20033;-66
2023/03/26 11:27:17;;;;;;;4.97;1.60;;;11.70;83.20;;;;;;5028608;28;20491;-67
2023/03/26 11:29:46;;;;;;;2.95;1.42;;;11.70;83.30;;;;;;5022133;28;20030;-65
2023/03/26 11:32:15;;;;;;;2.47;1.85;;;11.70;83.40;;;;;;5029809;28;20025;-67
2023/03/26 11:35:11;;;;;;;3.72;2.30;;;11.70;83.40;;;;;;5007364;28;20017;-67
2023/03/26 11:37:45;;;;;;;2.55;2.10;;;11.70;83.30;;;;;;5028888;28;20030;-66
2023/03/26 11:40:20;;;;;;;6.93;2.30;;;11.80;83.30;;;;;;5027946;28;20112;-67
2023/03/26 11:42:48;;;;;;;7.95;2.53;;;11.80;83.30;;;;;;5034492;28;20017;-67
2023/03/26 11:45:19;;;;;;;6.75;3.50;;;11.80;83.20;;;;;;5032848;28;20029;-66
2023/03/26 11:47:56;;;;;;;3.85;2.17;;;11.70;83.10;;;;;;5028902;28;20025;-66
2023/03/26 11:50:26;;;;;;;4.85;2.30;;;11.70;83.20;;;;;;5025164;28;20084;-64
2023/03/26 11:52:57;;;;;;;4.95;2.30;;;11.70;83.30;;;;;;5028247;28;20057;-65
2023/03/26 11:55:26;;;;;;;7.23;2.00;;;11.60;83.30;;;;;;5023687;28;20026;-65
2023/03/26 11:57:56;;;;;;;5.57;2.67;;;11.60;83.20;;;;;;5022695;28;20407;-65
2023/03/26 12:00:26;;;;;;;2.90;2.10;;;11.50;83.30;;;;;;5002638;28;20021;-65
2023/03/26 12:02:56;;;;;;;5.22;2.10;;;11.50;83.30;;;;;;5021514;28;20029;-66
2023/03/26 12:05:25;;;;;;;4.10;2.08;;;11.50;83.40;;;;;;5009640;28;20079;-66
2023/03/26 12:07:58;;;;;;;3.78;1.95;;;11.40;83.40;;;;;;5022316;28;20030;-66
2023/03/26 12:10:36;;;;;;;7.03;2.10;;;11.40;83.40;;;;;;5026262;28;20113;-67
2023/03/26 12:13:30;;;;;;;5.50;2.30;;;11.50;83.50;;;;;;5024335;28;20056;-66
2023/03/26 12:16:07;;;;;;;3.17;1.58;;;11.40;83.20;;;;;;5022946;28;20479;-65
2023/03/26 12:18:33;;;;;;;8.18;2.00;;;11.40;83.30;;;;;;5009379;28;20042;-67
2023/03/26 12:21:06;;;;;;;14.52;2.45;;;11.30;83.10;;;;;;5032897;28;20043;-68
2023/03/26 12:23:37;;;;;;;8.93;2.15;;;11.30;83.20;;;;;;5029692;28;20384;-64
2023/03/26 12:26:43;;;;;;;5.60;1.60;;;11.30;83.20;;;;;;5030259;28;20481;-64
2023/03/26 12:29:12;;;;;;;7.25;1.88;;;11.30;83.00;;;;;;5011242;28;20715;-65
2023/03/26 12:32:03;;;;;;;4.05;1.35;;;11.40;83.20;;;;;;5032338;28;20053;-66
2023/03/26 12:34:33;;;;;;;2.28;1.40;;;11.50;82.80;;;;;;5031539;28;20052;-65
2023/03/26 12:37:00;;;;;;;3.08;1.48;;;11.60;82.60;;;;;;5020324;28;20029;-66
2023/03/26 12:39:39;;;;;;;3.65;1.02;;;11.60;82.60;;;;;;5005891;28;20025;-64
2023/03/26 12:42:30;;;;;;;22.77;2.38;;;11.70;82.50;;;;;;5033465;28;20056;-66
2023/03/26 12:44:56;;;;;;;3.75;1.63;;;11.70;82.20;;;;;;5030846;28;20033;-65
2023/03/26 12:47:27;;;;;;;1.58;1.25;;;11.70;82.30;;;;;;5016094;28;20106;-65
2023/03/26 12:49:53;;;;;;;7.45;2.85;;;11.60;82.20;;;;;;5035578;28;20028;-66
2023/03/26 12:52:57;;;;;;;4.82;1.42;;;11.60;82.20;;;;;;5017735;28;20689;-65
2023/03/26 12:55:59;;;;;;;4.00;1.63;;;11.70;82.10;;;;;;5023673;28;20037;-66
2023/03/26 12:58:46;;;;;;;3.17;1.55;;;11.60;82.10;;;;;;5007552;28;20139;-67
2023/03/26 13:01:33;;;;;;;3.03;1.50;;;11.60;82.20;;;;;;5062442;27;20411;-67
2023/03/26 13:04:11;;;;;;;3.25;1.63;;;11.60;82.00;;;;;;5063553;28;20557;-67
2023/03/26 13:06:49;;;;;;;1.50;1.30;;;11.50;82.00;;;;;;5056482;28;20483;-67
2023/03/26 13:09:27;;;;;;;4.22;2.08;;;11.50;82.20;;;;;;5056955;28;20126;-67
2023/03/26 13:12:04;;;;;;;2.67;1.02;;;11.40;82.10;;;;;;5059787;28;20431;-68
2023/03/26 13:15:08;;;;;;;1.25;1.08;;;11.40;82.10;;;;;;5050795;28;20033;-68
2023/03/26 13:17:54;;;;;;;4.18;2.05;;;11.40;82.00;;;;;;5060154;28;20537;-66
2023/03/26 13:20:47;;;;;;;4.30;1.38;;;11.40;81.90;;;;;;5059274;28;20569;-65